F/V Izaskun Berria — ECBA — position and weather

sailwx.info

Track history (hours):
 
Tides and Currents Weather Stations Pressure Air Temp Water Temp Dewpoint Dewpoint Depression Visibility Wind Speed Wind Dir Waves Ship Positions

F/V Izaskun Berria

Last reported at 2018-Apr-27 05:00 UTC. Time now 2018-Apr-27 05:05 UTC.
Position N 43°27' W 002°01'.

Length 36 m.

Type: Fishing. MMSI: 224086790.

Date/timePositionNaut miles runAvg speedWind from/ knotsBaromVisibWave heightAir tempDewpointWater temp
2018-Apr-27 05:00N 43°27' W 002°01'3 5.1
2018-Apr-27 04:30N 43°26' W 002°04'0 0.6
2018-Apr-27 04:00N 43°26' W 002°04'0 0.3
2018-Apr-27 03:30N 43°26' W 002°05'0 0.4
2018-Apr-27 03:00N 43°26' W 002°05'3 5.6
2018-Apr-27 02:30N 43°24' W 002°08'5 9.8
2018-Apr-27 02:01N 43°25' W 002°15'1 1.5
2018-Apr-27 01:30N 43°25' W 002°16'0 0.3
2018-Apr-27 01:00N 43°25' W 002°16'0 0.3
2018-Apr-27 00:30N 43°25' W 002°16'0 0.2
2018-Apr-27 00:00N 43°25' W 002°16'0 0.1
2018-Apr-26 23:30N 43°25' W 002°16'0 0.2
2018-Apr-26 23:00N 43°25' W 002°16'0 0.5
2018-Apr-26 22:30N 43°25' W 002°15'0 0.6
2018-Apr-26 22:00N 43°25' W 002°15'0 0.7
2018-Apr-26 21:30N 43°25' W 002°14'0 0.7
2018-Apr-26 21:00N 43°25' W 002°14'0 0.8
2018-Apr-26 20:30N 43°25' W 002°13'0 0.8
2018-Apr-26 20:00N 43°25' W 002°13'3 6.7
2018-Apr-26 19:30N 43°25' W 002°08'2 3.0
2018-Apr-26 19:00N 43°23' W 002°07'2 4.2
2018-Apr-26 18:30N 43°24' W 002°10'1 1.6
2018-Apr-26 18:01N 43°25' W 002°10'2 4.1
2018-Apr-26 17:30N 43°23' W 002°09'0 0.1
2018-Apr-26 17:00N 43°23' W 002°09'5 9.8
2018-Apr-26 16:30N 43°18' W 002°12'0 0.2
2018-Apr-26 16:00N 43°18' W 002°12'0 0.0
2018-Apr-26 15:30N 43°18' W 002°12'1 2.1
2018-Apr-26 15:00N 43°19' W 002°11'4 7.7
2018-Apr-26 14:30N 43°23' W 002°11'0 0.7
2018-Apr-26 14:00N 43°23' W 002°11'0 0.3
2018-Apr-26 13:29N 43°24' W 002°11'1 2.3
2018-Apr-26 13:00N 43°25' W 002°11'2 3.5
2018-Apr-26 12:31N 43°25' W 002°13'0 0.4
2018-Apr-26 12:01N 43°26' W 002°13'0 0.3
2018-Apr-26 11:30N 43°26' W 002°13'2 3.2
2018-Apr-26 11:00N 43°24' W 002°14'0 0.4
2018-Apr-26 10:30N 43°24' W 002°14'0 0.1
2018-Apr-26 10:00N 43°24' W 002°14'2 3.4
2018-Apr-26 09:30N 43°24' W 002°17'2 4.3
2018-Apr-26 09:00N 43°26' W 002°18'1 2.5
2018-Apr-26 08:31N 43°25' W 002°17'3 6.4
2018-Apr-26 08:00N 43°22' W 002°14'4 2.0
2018-Apr-26 05:43N 43°18' W 002°12'2 7.4
2018-Apr-26 05:30N 43°20' W 002°12'510.8
2018-Apr-26 05:00N 43°24' W 002°16'510.7
2018-Apr-26 04:30N 43°29' W 002°20'0 0.5
2018-Apr-26 04:00N 43°29' W 002°20'0 0.3
2018-Apr-26 03:30N 43°29' W 002°20'0 0.4
2018-Apr-26 03:01N 43°29' W 002°20'0 0.5
2018-Apr-26 02:30N 43°29' W 002°20'0 0.6
2018-Apr-26 02:00N 43°30' W 002°20'0 0.8
2018-Apr-26 01:30N 43°30' W 002°20'0 0.8
2018-Apr-26 01:00N 43°30' W 002°20'0 0.8
2018-Apr-26 00:30N 43°31' W 002°20'0 0.9
2018-Apr-26 00:00N 43°31' W 002°21'0 0.7
2018-Apr-25 23:30N 43°32' W 002°21'3 6.6
2018-Apr-25 23:00N 43°34' W 002°18'4 7.9
2018-Apr-25 22:31N 43°37' W 002°14'0 0.8
2018-Apr-25 22:00N 43°37' W 002°14'0 0.6
2018-Apr-25 21:30N 43°37' W 002°14'0 0.3
2018-Apr-25 21:01N 43°38' W 002°14'0 0.2
2018-Apr-25 20:30N 43°38' W 002°14'0 0.8
2018-Apr-25 20:00N 43°38' W 002°15'0 0.7
2018-Apr-25 19:30N 43°38' W 002°15'0 0.7
2018-Apr-25 19:00N 43°38' W 002°16'4 7.1
2018-Apr-25 18:30N 43°38' W 002°21'4 8.1
2018-Apr-25 18:00N 43°39' W 002°26'2 4.2
2018-Apr-25 17:30N 43°40' W 002°28'3 5.9
2018-Apr-25 17:00N 43°40' W 002°24'3 5.0
2018-Apr-25 16:30N 43°37' W 002°23'2 3.5
2018-Apr-25 16:00N 43°36' W 002°24'2 4.4
2018-Apr-25 15:30N 43°36' W 002°27'2 5.0
2018-Apr-25 15:00N 43°36' W 002°31'2 3.8
2018-Apr-25 14:30N 43°34' W 002°31'2 4.5
2018-Apr-25 14:00N 43°34' W 002°28'1 3.0
2018-Apr-25 13:30N 43°34' W 002°26'0 0.6
2018-Apr-25 13:00N 43°34' W 002°25'0 0.6
2018-Apr-25 12:30N 43°34' W 002°25'0 0.7
2018-Apr-25 12:01N 43°34' W 002°25'0 0.8
2018-Apr-25 11:30N 43°35' W 002°25'0 0.8
2018-Apr-25 11:00N 43°35' W 002°25'0 0.8
2018-Apr-25 10:30N 43°36' W 002°25'0 0.6
2018-Apr-25 10:00N 43°36' W 002°25'4 8.6
2018-Apr-25 09:31N 43°33' W 002°21'5 9.3
2018-Apr-25 09:00N 43°29' W 002°18'5 9.5
2018-Apr-25 08:30N 43°24' W 002°15'5 9.8
2018-Apr-25 08:00N 43°20' W 002°12'1 1.7
2018-Apr-25 07:09N 43°18' W 002°12'0 0.0
2018-Apr-25 05:25N 43°18' W 002°12'3 7.9
2018-Apr-25 05:00N 43°21' W 002°15'510.7
2018-Apr-25 04:30N 43°25' W 002°20'510.9
2018-Apr-25 04:00N 43°28' W 002°26'510.8
2018-Apr-25 03:30N 43°32' W 002°31'3 6.4
2018-Apr-25 03:00N 43°34' W 002°34'0 0.1
2018-Apr-25 02:30N 43°34' W 002°34'0 0.1
2018-Apr-25 02:00N 43°34' W 002°34'0 0.0
2018-Apr-25 01:31N 43°34' W 002°34'0 0.1
2018-Apr-25 01:00N 43°34' W 002°34'1 1.7
2018-Apr-25 00:30N 43°34' W 002°35'0 0.7
2018-Apr-25 00:00N 43°34' W 002°35'0 0.1
2018-Apr-24 23:30N 43°34' W 002°35'0 0.2
2018-Apr-24 23:00N 43°34' W 002°36'1 2.7
2018-Apr-24 22:30N 43°33' W 002°37'1 1.4
2018-Apr-24 22:00N 43°34' W 002°37'3 6.3
2018-Apr-24 21:31N 43°32' W 002°34'510.4
2018-Apr-24 21:00N 43°31' W 002°27'5 9.9
2018-Apr-24 20:30N 43°29' W 002°21'510.0
2018-Apr-24 20:00N 43°25' W 002°17'510.3
2018-Apr-24 19:30N 43°20' W 002°13'2 2.7
2018-Apr-24 18:45N 43°18' W 002°12'2 7.2
2018-Apr-24 18:31N 43°20' W 002°13'510.9
2018-Apr-24 18:01N 43°23' W 002°19'510.9
2018-Apr-24 17:30N 43°26' W 002°25'510.3
2018-Apr-24 17:00N 43°30' W 002°30'510.9
2018-Apr-24 16:30N 43°33' W 002°36'4 7.7
2018-Apr-24 16:01N 43°37' W 002°33'1 2.8
2018-Apr-24 15:30N 43°35' W 002°35'3 7.0
2018-Apr-24 15:01N 43°34' W 002°39'0 0.3
2018-Apr-24 14:30N 43°34' W 002°39'0 0.5
2018-Apr-24 14:00N 43°34' W 002°39'4 8.9
2018-Apr-24 13:30N 43°35' W 002°45'2 4.1
2018-Apr-24 13:01N 43°33' W 002°47'0 0.1
2018-Apr-24 12:30N 43°33' W 002°46'0 0.7
2018-Apr-24 12:00N 43°34' W 002°46'3 5.6
2018-Apr-24 11:30N 43°36' W 002°48'510.4
2018-Apr-24 11:00N 43°36' W 002°55'510.4
2018-Apr-24 10:30N 43°36' W 003°02'510.4
2018-Apr-24 10:00N 43°36' W 003°09'510.3
2018-Apr-24 09:30N 43°36' W 003°16'510.2
2018-Apr-24 09:00N 43°36' W 003°23'5 9.9
2018-Apr-24 08:30N 43°36' W 003°30'510.1
2018-Apr-24 08:00N 43°36' W 003°37'510.3
2018-Apr-24 07:30N 43°36' W 003°44'510.2
2018-Apr-24 06:59N 43°36' W 003°52'95 8.4
2018-Apr-23 19:41N 43°39' W 006°03'310.5
2018-Apr-23 19:26N 43°40' W 005°59'510.3
2018-Apr-23 18:54N 43°41' W 005°52'510.3
2018-Apr-23 18:27N 43°41' W 005°45'510.4
2018-Apr-23 17:56N 43°40' W 005°38'510.4
2018-Apr-23 17:30N 43°39' W 005°32'83 5.5
2018-Apr-23 02:22N 43°32' W 003°37'3 9.8
2018-Apr-23 02:00N 43°33' W 003°32'5 9.8
2018-Apr-23 01:29N 43°33' W 003°25'5 9.6
2018-Apr-23 01:00N 43°33' W 003°19'5 9.3
2018-Apr-23 00:30N 43°32' W 003°12'5 9.1
2018-Apr-23 00:00N 43°32' W 003°06'5 9.1
2018-Apr-22 23:30N 43°31' W 002°60'5 9.8
2018-Apr-22 23:00N 43°30' W 002°53'5 9.9
2018-Apr-22 22:30N 43°29' W 002°47'5 9.7
2018-Apr-22 22:00N 43°28' W 002°40'5 9.3
2018-Apr-22 21:30N 43°27' W 002°34'5 9.6
2018-Apr-22 21:01N 43°25' W 002°28'5 9.7
2018-Apr-22 20:30N 43°23' W 002°22'5 9.3
2018-Apr-22 20:00N 43°21' W 002°16'4 7.8
2018-Apr-22 19:30N 43°19' W 002°12'0 0.8
2018-Apr-22 18:59N 43°18' W 002°12'  
2018-Apr-20 13:21N 43°18' W 002°12'87 8.5
2018-Apr-20 03:05N 44°44' W 001°52'2 1.4
2018-Apr-20 01:24N 44°42' W 001°52'56 8.7
2018-Apr-19 18:57N 43°47' W 002°04'510.8
2018-Apr-19 18:30N 43°42' W 002°05'510.9
2018-Apr-19 18:00N 43°37' W 002°07'611.2
2018-Apr-19 17:30N 43°31' W 002°08'611.0
2018-Apr-19 17:00N 43°26' W 002°10'3 0.9
2018-Apr-19 13:50N 43°23' W 002°10'411.0
2018-Apr-19 13:29N 43°27' W 002°09'5610.9
2018-Apr-19 08:21N 44°21' W 001°48'411.1
2018-Apr-19 08:00N 44°25' W 001°47'511.0
2018-Apr-19 07:30N 44°30' W 001°45'611.1
2018-Apr-19 06:59N 44°35' W 001°43'2 2.2
2018-Apr-19 06:05N 44°37' W 001°41'0 0.2
2018-Apr-19 05:39N 44°37' W 001°41'0 0.7
2018-Apr-19 05:27N 44°37' W 001°41'0 0.4
2018-Apr-19 05:00N 44°37' W 001°41'3 6.0
2018-Apr-19 04:29N 44°39' W 001°45'0 0.3
2018-Apr-19 03:58N 44°39' W 001°45'0 0.3
2018-Apr-19 03:30N 44°39' W 001°45'0 0.4
2018-Apr-19 03:00N 44°39' W 001°45'0 0.8
2018-Apr-19 02:30N 44°39' W 001°45'510.5
2018-Apr-19 02:00N 44°35' W 001°49'610.9
2018-Apr-19 01:29N 44°30' W 001°51'4911.1
2018-Apr-18 21:05N 43°42' W 002°05'111.4
2018-Apr-18 20:59N 43°41' W 002°05'611.2
2018-Apr-18 20:29N 43°35' W 002°07'611.0
2018-Apr-18 19:59N 43°30' W 002°08'2 0.4
2018-Apr-18 15:44N 43°28' W 002°08'5910.9
2018-Apr-18 10:23N 44°25' W 001°48'3 6.6
2018-Apr-18 09:52N 44°28' W 001°47'0 0.3
2018-Apr-18 09:13N 44°28' W 001°46'0 0.1
2018-Apr-18 08:52N 44°28' W 001°46'0 0.3
2018-Apr-18 08:30N 44°28' W 001°47'4 7.0
2018-Apr-18 08:00N 44°30' W 001°50'5 4.4
2018-Apr-18 06:54N 44°34' W 001°55'6 3.9
2018-Apr-18 05:26N 44°30' W 001°49'2 5.1
2018-Apr-18 05:00N 44°28' W 001°49'3 4.6
2018-Apr-18 04:24N 44°30' W 001°53'0 0.4
2018-Apr-18 04:00N 44°30' W 001°52'0 0.1
2018-Apr-18 03:30N 44°30' W 001°52'0 0.6
2018-Apr-18 02:54N 44°29' W 001°52'1 2.3
2018-Apr-18 02:26N 44°29' W 001°53'5 8.5
2018-Apr-18 01:50N 44°24' W 001°53'3 8.5
2018-Apr-18 01:30N 44°21' W 001°53'9 9.9
2018-Apr-18 00:35N 44°12' W 001°54'410.8
2018-Apr-18 00:11N 44°08' W 001°56'310.6
2018-Apr-17 23:57N 44°05' W 001°57'2410.7
2018-Apr-17 21:41N 43°42' W 002°05'210.5
2018-Apr-17 21:30N 43°40' W 002°06'510.7
2018-Apr-17 21:00N 43°35' W 002°07'510.9
2018-Apr-17 20:30N 43°29' W 002°08'510.9
2018-Apr-17 20:00N 43°24' W 002°10'1 0.2
2018-Apr-17 14:48N 43°23' W 002°10'310.7
2018-Apr-17 14:30N 43°26' W 002°10'7 8.5
2018-Apr-17 13:43N 43°33' W 002°08'  
Track history (hours):
 
Tides and Currents Weather Stations Pressure Air Temp Water Temp Dewpoint Dewpoint Depression Visibility Wind Speed Wind Dir Waves Ship Positions

F/V Izaskun Berria

Last reported at 2018-Apr-27 05:00 UTC. Time now 2018-Apr-27 05:05 UTC.
Position N 43°27' W 002°01'.

Length 36 m.

Type: Fishing. MMSI: 224086790.

Date/timePositionNaut miles runAvg speedWind from/ knotsBaromVisibWave heightAir tempDewpointWater temp
2018-Apr-27 05:00N 43°27' W 002°01'3 5.1
2018-Apr-27 04:30N 43°26' W 002°04'0 0.6
2018-Apr-27 04:00N 43°26' W 002°04'0 0.3
2018-Apr-27 03:30N 43°26' W 002°05'0 0.4
2018-Apr-27 03:00N 43°26' W 002°05'3 5.6
2018-Apr-27 02:30N 43°24' W 002°08'5 9.8
2018-Apr-27 02:01N 43°25' W 002°15'1 1.5
2018-Apr-27 01:30N 43°25' W 002°16'0 0.3
2018-Apr-27 01:00N 43°25' W 002°16'0 0.3
2018-Apr-27 00:30N 43°25' W 002°16'0 0.2
2018-Apr-27 00:00N 43°25' W 002°16'0 0.1
2018-Apr-26 23:30N 43°25' W 002°16'0 0.2
2018-Apr-26 23:00N 43°25' W 002°16'0 0.5
2018-Apr-26 22:30N 43°25' W 002°15'0 0.6
2018-Apr-26 22:00N 43°25' W 002°15'0 0.7
2018-Apr-26 21:30N 43°25' W 002°14'0 0.7
2018-Apr-26 21:00N 43°25' W 002°14'0 0.8
2018-Apr-26 20:30N 43°25' W 002°13'0 0.8
2018-Apr-26 20:00N 43°25' W 002°13'3 6.7
2018-Apr-26 19:30N 43°25' W 002°08'2 3.0
2018-Apr-26 19:00N 43°23' W 002°07'2 4.2
2018-Apr-26 18:30N 43°24' W 002°10'1 1.6
2018-Apr-26 18:01N 43°25' W 002°10'2 4.1
2018-Apr-26 17:30N 43°23' W 002°09'0 0.1
2018-Apr-26 17:00N 43°23' W 002°09'5 9.8
2018-Apr-26 16:30N 43°18' W 002°12'0 0.2
2018-Apr-26 16:00N 43°18' W 002°12'0 0.0
2018-Apr-26 15:30N 43°18' W 002°12'1 2.1
2018-Apr-26 15:00N 43°19' W 002°11'4 7.7
2018-Apr-26 14:30N 43°23' W 002°11'0 0.7
2018-Apr-26 14:00N 43°23' W 002°11'0 0.3
2018-Apr-26 13:29N 43°24' W 002°11'1 2.3
2018-Apr-26 13:00N 43°25' W 002°11'2 3.5
2018-Apr-26 12:31N 43°25' W 002°13'0 0.4
2018-Apr-26 12:01N 43°26' W 002°13'0 0.3
2018-Apr-26 11:30N 43°26' W 002°13'2 3.2
2018-Apr-26 11:00N 43°24' W 002°14'0 0.4
2018-Apr-26 10:30N 43°24' W 002°14'0 0.1
2018-Apr-26 10:00N 43°24' W 002°14'2 3.4
2018-Apr-26 09:30N 43°24' W 002°17'2 4.3
2018-Apr-26 09:00N 43°26' W 002°18'1 2.5
2018-Apr-26 08:31N 43°25' W 002°17'3 6.4
2018-Apr-26 08:00N 43°22' W 002°14'4 2.0
2018-Apr-26 05:43N 43°18' W 002°12'2 7.4
2018-Apr-26 05:30N 43°20' W 002°12'510.8
2018-Apr-26 05:00N 43°24' W 002°16'510.7
2018-Apr-26 04:30N 43°29' W 002°20'0 0.5
2018-Apr-26 04:00N 43°29' W 002°20'0 0.3
2018-Apr-26 03:30N 43°29' W 002°20'0 0.4
2018-Apr-26 03:01N 43°29' W 002°20'0 0.5
2018-Apr-26 02:30N 43°29' W 002°20'0 0.6
2018-Apr-26 02:00N 43°30' W 002°20'0 0.8
2018-Apr-26 01:30N 43°30' W 002°20'0 0.8
2018-Apr-26 01:00N 43°30' W 002°20'0 0.8
2018-Apr-26 00:30N 43°31' W 002°20'0 0.9
2018-Apr-26 00:00N 43°31' W 002°21'0 0.7
2018-Apr-25 23:30N 43°32' W 002°21'3 6.6
2018-Apr-25 23:00N 43°34' W 002°18'4 7.9
2018-Apr-25 22:31N 43°37' W 002°14'0 0.8
2018-Apr-25 22:00N 43°37' W 002°14'0 0.6
2018-Apr-25 21:30N 43°37' W 002°14'0 0.3
2018-Apr-25 21:01N 43°38' W 002°14'0 0.2
2018-Apr-25 20:30N 43°38' W 002°14'0 0.8
2018-Apr-25 20:00N 43°38' W 002°15'0 0.7
2018-Apr-25 19:30N 43°38' W 002°15'0 0.7
2018-Apr-25 19:00N 43°38' W 002°16'4 7.1
2018-Apr-25 18:30N 43°38' W 002°21'4 8.1
2018-Apr-25 18:00N 43°39' W 002°26'2 4.2
2018-Apr-25 17:30N 43°40' W 002°28'3 5.9
2018-Apr-25 17:00N 43°40' W 002°24'3 5.0
2018-Apr-25 16:30N 43°37' W 002°23'2 3.5
2018-Apr-25 16:00N 43°36' W 002°24'2 4.4
2018-Apr-25 15:30N 43°36' W 002°27'2 5.0
2018-Apr-25 15:00N 43°36' W 002°31'2 3.8
2018-Apr-25 14:30N 43°34' W 002°31'2 4.5
2018-Apr-25 14:00N 43°34' W 002°28'1 3.0
2018-Apr-25 13:30N 43°34' W 002°26'0 0.6
2018-Apr-25 13:00N 43°34' W 002°25'0 0.6
2018-Apr-25 12:30N 43°34' W 002°25'0 0.7
2018-Apr-25 12:01N 43°34' W 002°25'0 0.8
2018-Apr-25 11:30N 43°35' W 002°25'0 0.8
2018-Apr-25 11:00N 43°35' W 002°25'0 0.8
2018-Apr-25 10:30N 43°36' W 002°25'0 0.6
2018-Apr-25 10:00N 43°36' W 002°25'4 8.6
2018-Apr-25 09:31N 43°33' W 002°21'5 9.3
2018-Apr-25 09:00N 43°29' W 002°18'5 9.5
2018-Apr-25 08:30N 43°24' W 002°15'5 9.8
2018-Apr-25 08:00N 43°20' W 002°12'1 1.7
2018-Apr-25 07:09N 43°18' W 002°12'0 0.0
2018-Apr-25 05:25N 43°18' W 002°12'3 7.9
2018-Apr-25 05:00N 43°21' W 002°15'510.7
2018-Apr-25 04:30N 43°25' W 002°20'510.9
2018-Apr-25 04:00N 43°28' W 002°26'510.8
2018-Apr-25 03:30N 43°32' W 002°31'3 6.4
2018-Apr-25 03:00N 43°34' W 002°34'0 0.1
2018-Apr-25 02:30N 43°34' W 002°34'0 0.1
2018-Apr-25 02:00N 43°34' W 002°34'0 0.0
2018-Apr-25 01:31N 43°34' W 002°34'0 0.1
2018-Apr-25 01:00N 43°34' W 002°34'1 1.7
2018-Apr-25 00:30N 43°34' W 002°35'0 0.7
2018-Apr-25 00:00N 43°34' W 002°35'0 0.1
2018-Apr-24 23:30N 43°34' W 002°35'0 0.2
2018-Apr-24 23:00N 43°34' W 002°36'1 2.7
2018-Apr-24 22:30N 43°33' W 002°37'1 1.4
2018-Apr-24 22:00N 43°34' W 002°37'3 6.3
2018-Apr-24 21:31N 43°32' W 002°34'510.4
2018-Apr-24 21:00N 43°31' W 002°27'5 9.9
2018-Apr-24 20:30N 43°29' W 002°21'510.0
2018-Apr-24 20:00N 43°25' W 002°17'510.3
2018-Apr-24 19:30N 43°20' W 002°13'2 2.7
2018-Apr-24 18:45N 43°18' W 002°12'2 7.2
2018-Apr-24 18:31N 43°20' W 002°13'510.9
2018-Apr-24 18:01N 43°23' W 002°19'510.9
2018-Apr-24 17:30N 43°26' W 002°25'510.3
2018-Apr-24 17:00N 43°30' W 002°30'510.9
2018-Apr-24 16:30N 43°33' W 002°36'4 7.7
2018-Apr-24 16:01N 43°37' W 002°33'1 2.8
2018-Apr-24 15:30N 43°35' W 002°35'3 7.0
2018-Apr-24 15:01N 43°34' W 002°39'0 0.3
2018-Apr-24 14:30N 43°34' W 002°39'0 0.5
2018-Apr-24 14:00N 43°34' W 002°39'4 8.9
2018-Apr-24 13:30N 43°35' W 002°45'2 4.1
2018-Apr-24 13:01N 43°33' W 002°47'0 0.1
2018-Apr-24 12:30N 43°33' W 002°46'0 0.7
2018-Apr-24 12:00N 43°34' W 002°46'3 5.6
2018-Apr-24 11:30N 43°36' W 002°48'510.4
2018-Apr-24 11:00N 43°36' W 002°55'510.4
2018-Apr-24 10:30N 43°36' W 003°02'510.4
2018-Apr-24 10:00N 43°36' W 003°09'510.3
2018-Apr-24 09:30N 43°36' W 003°16'510.2
2018-Apr-24 09:00N 43°36' W 003°23'5 9.9
2018-Apr-24 08:30N 43°36' W 003°30'510.1
2018-Apr-24 08:00N 43°36' W 003°37'510.3
2018-Apr-24 07:30N 43°36' W 003°44'510.2
2018-Apr-24 06:59N 43°36' W 003°52'95 8.4
2018-Apr-23 19:41N 43°39' W 006°03'310.5
2018-Apr-23 19:26N 43°40' W 005°59'510.3
2018-Apr-23 18:54N 43°41' W 005°52'510.3
2018-Apr-23 18:27N 43°41' W 005°45'510.4
2018-Apr-23 17:56N 43°40' W 005°38'510.4
2018-Apr-23 17:30N 43°39' W 005°32'83 5.5
2018-Apr-23 02:22N 43°32' W 003°37'3 9.8
2018-Apr-23 02:00N 43°33' W 003°32'5 9.8
2018-Apr-23 01:29N 43°33' W 003°25'5 9.6
2018-Apr-23 01:00N 43°33' W 003°19'5 9.3
2018-Apr-23 00:30N 43°32' W 003°12'5 9.1
2018-Apr-23 00:00N 43°32' W 003°06'5 9.1
2018-Apr-22 23:30N 43°31' W 002°60'5 9.8
2018-Apr-22 23:00N 43°30' W 002°53'5 9.9
2018-Apr-22 22:30N 43°29' W 002°47'5 9.7
2018-Apr-22 22:00N 43°28' W 002°40'5 9.3
2018-Apr-22 21:30N 43°27' W 002°34'5 9.6
2018-Apr-22 21:01N 43°25' W 002°28'5 9.7
2018-Apr-22 20:30N 43°23' W 002°22'5 9.3
2018-Apr-22 20:00N 43°21' W 002°16'4 7.8
2018-Apr-22 19:30N 43°19' W 002°12'0 0.8
2018-Apr-22 18:59N 43°18' W 002°12'  
2018-Apr-20 13:21N 43°18' W 002°12'87 8.5
2018-Apr-20 03:05N 44°44' W 001°52'2 1.4
2018-Apr-20 01:24N 44°42' W 001°52'56 8.7
2018-Apr-19 18:57N 43°47' W 002°04'510.8
2018-Apr-19 18:30N 43°42' W 002°05'510.9
2018-Apr-19 18:00N 43°37' W 002°07'611.2
2018-Apr-19 17:30N 43°31' W 002°08'611.0
2018-Apr-19 17:00N 43°26' W 002°10'3 0.9
2018-Apr-19 13:50N 43°23' W 002°10'411.0
2018-Apr-19 13:29N 43°27' W 002°09'5610.9
2018-Apr-19 08:21N 44°21' W 001°48'411.1
2018-Apr-19 08:00N 44°25' W 001°47'511.0
2018-Apr-19 07:30N 44°30' W 001°45'611.1
2018-Apr-19 06:59N 44°35' W 001°43'2 2.2
2018-Apr-19 06:05N 44°37' W 001°41'0 0.2
2018-Apr-19 05:39N 44°37' W 001°41'0 0.7
2018-Apr-19 05:27N 44°37' W 001°41'0 0.4
2018-Apr-19 05:00N 44°37' W 001°41'3 6.0
2018-Apr-19 04:29N 44°39' W 001°45'0 0.3
2018-Apr-19 03:58N 44°39' W 001°45'0 0.3
2018-Apr-19 03:30N 44°39' W 001°45'0 0.4
2018-Apr-19 03:00N 44°39' W 001°45'0 0.8
2018-Apr-19 02:30N 44°39' W 001°45'510.5
2018-Apr-19 02:00N 44°35' W 001°49'610.9
2018-Apr-19 01:29N 44°30' W 001°51'4911.1
2018-Apr-18 21:05N 43°42' W 002°05'111.4
2018-Apr-18 20:59N 43°41' W 002°05'611.2
2018-Apr-18 20:29N 43°35' W 002°07'611.0
2018-Apr-18 19:59N 43°30' W 002°08'2 0.4
2018-Apr-18 15:44N 43°28' W 002°08'5910.9
2018-Apr-18 10:23N 44°25' W 001°48'3 6.6
2018-Apr-18 09:52N 44°28' W 001°47'0 0.3
2018-Apr-18 09:13N 44°28' W 001°46'0 0.1
2018-Apr-18 08:52N 44°28' W 001°46'0 0.3
2018-Apr-18 08:30N 44°28' W 001°47'4 7.0
2018-Apr-18 08:00N 44°30' W 001°50'5 4.4
2018-Apr-18 06:54N 44°34' W 001°55'6 3.9
2018-Apr-18 05:26N 44°30' W 001°49'2 5.1
2018-Apr-18 05:00N 44°28' W 001°49'3 4.6
2018-Apr-18 04:24N 44°30' W 001°53'0 0.4
2018-Apr-18 04:00N 44°30' W 001°52'0 0.1
2018-Apr-18 03:30N 44°30' W 001°52'0 0.6
2018-Apr-18 02:54N 44°29' W 001°52'1 2.3
2018-Apr-18 02:26N 44°29' W 001°53'5 8.5
2018-Apr-18 01:50N 44°24' W 001°53'3 8.5
2018-Apr-18 01:30N 44°21' W 001°53'9 9.9
2018-Apr-18 00:35N 44°12' W 001°54'410.8
2018-Apr-18 00:11N 44°08' W 001°56'310.6
2018-Apr-17 23:57N 44°05' W 001°57'2410.7
2018-Apr-17 21:41N 43°42' W 002°05'210.5
2018-Apr-17 21:30N 43°40' W 002°06'510.7
2018-Apr-17 21:00N 43°35' W 002°07'510.9
2018-Apr-17 20:30N 43°29' W 002°08'510.9
2018-Apr-17 20:00N 43°24' W 002°10'1 0.2
2018-Apr-17 14:48N 43°23' W 002°10'310.7
2018-Apr-17 14:30N 43°26' W 002°10'7 8.5
2018-Apr-17 13:43N 43°33' W 002°08'  

Dump ship's entire track history